61  °F
Temperature
16  °C
Temperature
16  °C
 Dewpoint
61  °F
  Dewpoint
100  %
 Humidity
  Temperature
5  mph
Wind Speed
4  kts
Wind Speed
8  km/h
Wind Speed
2.2  m/s
Wind Speed
170°
Due South

Wind Speed
Clear
Conditions
Pressure 1015.62 (mb) - 29.99 (inHG)
Visibility 10.0 (mi) - 16.1 (km)

Sky Conditions
KBHC
Location Baxley Municipal 5 mi (8.05 km)
Metar :KBHC 181015Z AUTO 17004KT 10SM CLR 16/16 A2999 RMK AO2
Thu 18th April 06:15 am

Nearest Airport
https://www.checkwx.com/weather/KBHC
  Metar Aviation API Data Provided by https://www.checkwx.com/ Original CSS/SVG/PHP scripts by weather34.com © 2015-2019